createdAt,value
2023-04-18T00:01:29.415Z,10.33
2023-04-18T00:04:35.473Z,10.41
2023-04-18T00:07:46.280Z,10.23
2023-04-18T00:10:52.362Z,10.49
2023-04-18T00:14:00.172Z,9.96
2023-04-18T00:18:12.960Z,10.28
2023-04-18T00:21:25.917Z,10.44
2023-04-18T00:24:34.595Z,10.66
2023-04-18T00:27:42.665Z,9.85
2023-04-18T00:30:51.073Z,10.01
2023-04-18T00:33:57.910Z,10.19
2023-04-18T00:37:04.014Z,10.34
2023-04-18T00:40:21.772Z,10.09
2023-04-18T00:43:28.490Z,10.47
2023-04-18T00:46:35.319Z,10.49
2023-04-18T00:49:42.010Z,10.31
2023-04-18T00:52:52.621Z,10.17
2023-04-18T00:56:01.602Z,10.04
2023-04-18T00:59:10.511Z,9.87
2023-04-18T01:02:17.816Z,9.90
2023-04-18T01:05:41.739Z,10.20
2023-04-18T01:08:49.282Z,10.71
2023-04-18T01:12:00.675Z,10.44
2023-04-18T01:15:07.851Z,10.42
2023-04-18T01:18:17.528Z,9.74
2023-04-18T01:22:12.659Z,10.33
2023-04-18T01:25:23.498Z,10.36
2023-04-18T01:28:30.166Z,10.72
2023-04-18T01:31:39.205Z,10.14
2023-04-18T01:34:46.439Z,10.31
2023-04-18T01:37:59.468Z,10.79
2023-04-18T01:41:16.836Z,10.85
2023-04-18T01:44:23.753Z,10.69
2023-04-18T01:47:29.803Z,10.93
2023-04-18T01:50:36.823Z,11.04
2023-04-18T01:53:42.886Z,11.55
2023-04-18T01:56:53.187Z,10.81
2023-04-18T01:59:59.541Z,11.07
2023-04-18T02:03:07.011Z,10.83
2023-04-18T02:06:13.259Z,10.97
2023-04-18T02:09:20.411Z,10.81
2023-04-18T02:12:29.169Z,10.85
2023-04-18T02:15:36.254Z,11.52
2023-04-18T02:18:42.218Z,11.24
2023-04-18T02:21:49.095Z,11.44
2023-04-18T02:24:55.109Z,11.88
2023-04-18T02:28:16.811Z,11.91
2023-04-18T02:31:44.921Z,11.94
2023-04-18T02:34:55.012Z,11.97
2023-04-18T02:38:01.356Z,11.93
2023-04-18T02:41:15.369Z,11.45
2023-04-18T02:44:28.318Z,12.19
2023-04-18T02:47:47.077Z,12.17
2023-04-18T02:51:04.263Z,11.68
2023-04-18T02:54:13.284Z,11.48
2023-04-18T02:57:42.010Z,12.25
2023-04-18T03:01:13.355Z,12.22
2023-04-18T03:04:41.875Z,11.86
2023-04-18T03:07:49.583Z,11.58
2023-04-18T03:10:57.170Z,11.39
2023-04-18T03:14:06.015Z,11.11
2023-04-18T03:17:36.531Z,10.80
2023-04-18T03:20:45.783Z,10.57
2023-04-18T03:23:53.422Z,11.54
2023-04-18T03:27:02.492Z,11.82
2023-04-18T03:30:15.364Z,12.72
2023-04-18T03:33:29.079Z,13.29
2023-04-18T03:36:47.295Z,12.30
2023-04-18T03:39:55.109Z,12.58
2023-04-18T03:43:05.036Z,14.51
2023-04-18T03:46:12.116Z,14.71
2023-04-18T03:49:20.989Z,13.81
2023-04-18T03:52:29.839Z,12.73
2023-04-18T03:55:36.744Z,15.17
2023-04-18T03:58:44.205Z,14.26
2023-04-18T04:01:50.909Z,13.49
2023-04-18T04:05:12.158Z,13.84
2023-04-18T04:08:31.798Z,14.44
2023-04-18T04:11:38.800Z,13.78
2023-04-18T04:14:53.845Z,14.74
2023-04-18T04:18:00.735Z,15.29
2023-04-18T04:21:21.154Z,15.63
2023-04-18T04:24:33.193Z,15.65
2023-04-18T04:27:39.750Z,16.10
2023-04-18T04:30:49.179Z,16.13
2023-04-18T04:33:55.856Z,16.33
2023-04-18T04:37:06.500Z,16.84
2023-04-18T04:40:19.569Z,18.22
2023-04-18T04:44:04.502Z,18.32
2023-04-18T04:47:14.405Z,19.26
2023-04-18T04:50:22.564Z,18.73
2023-04-18T04:53:33.344Z,18.71
2023-04-18T04:56:41.657Z,18.59
2023-04-18T04:59:47.665Z,19.08
2023-04-18T05:02:55.664Z,18.69
2023-04-18T05:06:03.222Z,18.67
2023-04-18T05:09:12.567Z,17.77
2023-04-18T05:12:18.445Z,17.55
2023-04-18T05:15:25.942Z,17.97
2023-04-18T05:18:34.361Z,17.69
2023-04-18T05:21:43.797Z,18.66
2023-04-18T05:24:52.422Z,18.28
2023-04-18T05:27:59.112Z,18.37
2023-04-18T05:31:05.166Z,18.01
2023-04-18T05:34:12.382Z,17.91
2023-04-18T05:37:18.696Z,16.82
2023-04-18T05:40:30.332Z,17.12
2023-04-18T05:43:36.143Z,15.95
2023-04-18T05:46:43.080Z,16.03
2023-04-18T05:49:49.086Z,16.13
2023-04-18T05:52:59.150Z,15.58
2023-04-18T05:56:08.880Z,15.82
2023-04-18T05:59:16.410Z,15.83
2023-04-18T06:02:22.620Z,16.50
2023-04-18T06:05:32.792Z,14.73
2023-04-18T06:08:38.800Z,14.96
2023-04-18T06:11:48.224Z,15.55
2023-04-18T06:14:54.159Z,15.26
2023-04-18T06:18:00.958Z,15.27
2023-04-18T06:21:06.956Z,14.19
2023-04-18T06:24:13.867Z,15.10
2023-04-18T06:27:30.516Z,15.59
2023-04-18T06:30:38.088Z,14.98
2023-04-18T06:33:43.925Z,15.88
2023-04-18T06:36:50.840Z,15.32
2023-04-18T06:39:56.873Z,16.34
2023-04-18T06:43:06.548Z,15.78
2023-04-18T06:46:12.675Z,15.78
2023-04-18T06:49:20.770Z,15.98
2023-04-18T06:52:31.202Z,15.72
2023-04-18T06:55:39.013Z,15.47
2023-04-18T06:58:47.841Z,14.80
2023-04-18T07:01:54.903Z,14.60
2023-04-18T07:05:00.988Z,16.37
2023-04-18T07:08:07.757Z,15.92
2023-04-18T07:11:15.972Z,15.29
2023-04-18T07:14:28.785Z,14.70
2023-04-18T07:17:36.283Z,15.79
2023-04-18T07:20:45.968Z,15.41
2023-04-18T07:23:52.512Z,15.00
2023-04-18T07:26:59.846Z,15.46
2023-04-18T07:30:10.813Z,15.45
2023-04-18T07:33:17.884Z,16.09
2023-04-18T07:36:24.566Z,14.79
2023-04-18T07:39:32.235Z,13.65
2023-04-18T07:42:40.836Z,14.62
2023-04-18T07:45:50.237Z,14.39
2023-04-18T07:48:56.090Z,14.99
2023-04-18T07:52:02.976Z,14.94
2023-04-18T07:55:10.949Z,14.91
2023-04-18T07:58:17.866Z,14.01
2023-04-18T08:01:27.588Z,13.54
2023-04-18T08:04:34.611Z,14.02
2023-04-18T08:07:40.668Z,14.28
2023-04-18T08:10:47.499Z,14.02
2023-04-18T08:13:53.570Z,13.61
2023-04-18T08:17:02.905Z,13.69
2023-04-18T08:20:10.630Z,13.77
2023-04-18T08:23:17.438Z,13.33
2023-04-18T08:26:23.458Z,13.19
2023-04-18T08:29:30.212Z,13.96
2023-04-18T08:32:39.950Z,13.96
2023-04-18T08:35:46.836Z,13.08
2023-04-18T08:38:52.899Z,13.45
2023-04-18T08:42:03.511Z,13.06
2023-04-18T08:45:14.071Z,13.10
2023-04-18T08:48:23.355Z,13.03
2023-04-18T08:51:33.653Z,13.23
2023-04-18T08:54:42.318Z,13.50
2023-04-18T08:57:48.485Z,13.30
2023-04-18T09:00:56.582Z,12.20
2023-04-18T09:04:08.384Z,11.88
2023-04-18T09:07:16.834Z,11.65
2023-04-18T09:10:46.843Z,11.77
2023-04-18T09:13:53.747Z,11.13
2023-04-18T09:17:00.556Z,10.52
2023-04-18T09:20:41.559Z,10.77
2023-04-18T09:23:48.039Z,10.47
2023-04-18T09:26:57.461Z,10.45
2023-04-18T09:30:03.357Z,10.04
2023-04-18T09:33:13.106Z,10.19
2023-04-18T09:36:28.022Z,9.85
2023-04-18T09:39:34.812Z,10.02
2023-04-18T09:42:41.223Z,9.97
2023-04-18T09:45:50.099Z,9.90
2023-04-18T09:48:56.123Z,9.63
2023-04-18T09:52:11.623Z,9.72
2023-04-18T09:55:21.577Z,9.24
2023-04-18T09:58:42.421Z,8.70
2023-04-18T10:01:48.823Z,9.00
2023-04-18T10:05:25.012Z,9.53
2023-04-18T10:08:36.018Z,8.95
2023-04-18T10:11:43.702Z,8.58
2023-04-18T10:14:50.423Z,9.37
2023-04-18T10:18:05.248Z,9.15
2023-04-18T10:21:12.894Z,8.91
2023-04-18T10:24:53.720Z,9.07
2023-04-18T10:28:16.527Z,8.99
2023-04-18T10:31:26.276Z,8.40
2023-04-18T10:34:32.205Z,8.14
2023-04-18T10:38:05.982Z,8.15
2023-04-18T10:41:29.916Z,8.47
2023-04-18T10:44:36.702Z,8.02
2023-04-18T10:47:42.773Z,8.20
2023-04-18T10:51:22.293Z,8.52
2023-04-18T10:54:42.113Z,7.96
2023-04-18T10:57:56.984Z,7.60
2023-04-18T11:01:09.252Z,7.66
2023-04-18T11:04:17.090Z,7.77
2023-04-18T11:07:23.463Z,7.19
2023-04-18T11:10:31.245Z,7.34
2023-04-18T11:13:39.965Z,7.24
2023-04-18T11:16:46.991Z,6.53
2023-04-18T11:19:53.939Z,6.73
2023-04-18T11:23:03.008Z,6.97
2023-04-18T11:26:09.588Z,6.53
2023-04-18T11:29:21.008Z,7.03
2023-04-18T11:32:27.425Z,6.89
2023-04-18T11:35:34.483Z,7.13
2023-04-18T11:38:44.521Z,6.96
2023-04-18T11:41:53.291Z,7.25
2023-04-18T11:45:05.044Z,7.59
2023-04-18T11:48:11.895Z,7.47
2023-04-18T11:51:38.880Z,7.49
2023-04-18T11:54:47.990Z,7.57
2023-04-18T11:57:56.284Z,7.12
2023-04-18T12:01:20.149Z,7.03
2023-04-18T12:04:26.468Z,6.70
2023-04-18T12:07:41.957Z,6.49
2023-04-18T12:10:52.080Z,6.70
2023-04-18T12:14:01.637Z,6.79
2023-04-18T12:17:11.570Z,6.73
2023-04-18T12:20:18.711Z,7.03
2023-04-18T12:23:37.478Z,7.05
2023-04-18T12:26:49.482Z,7.00
2023-04-18T12:29:55.387Z,7.36
2023-04-18T12:33:06.994Z,7.68
2023-04-18T12:36:13.350Z,7.83
2023-04-18T12:39:20.077Z,7.39
2023-04-18T12:42:26.028Z,7.70
2023-04-18T12:45:33.238Z,7.20
2023-04-18T12:48:41.770Z,7.46
2023-04-18T12:51:51.697Z,8.31
2023-04-18T12:54:58.471Z,8.24
2023-04-18T12:58:05.612Z,8.13
2023-04-18T13:01:11.547Z,7.59
2023-04-18T13:04:21.413Z,8.18
2023-04-18T13:07:28.064Z,6.67
2023-04-18T13:10:35.434Z,6.65
2023-04-18T13:13:41.431Z,6.96
2023-04-18T13:16:49.035Z,6.36
2023-04-18T13:19:57.787Z,5.25
2023-04-18T13:23:06.233Z,5.23
2023-04-18T13:26:12.365Z,5.44
2023-04-18T13:29:19.307Z,6.27
2023-04-18T13:32:25.696Z,5.70
2023-04-18T13:35:35.165Z,5.88
2023-04-18T13:38:41.057Z,5.71
2023-04-18T13:41:47.957Z,5.87
2023-04-18T13:44:54.255Z,9.44
2023-04-18T13:48:08.071Z,7.31
2023-04-18T13:51:22.345Z,5.59
2023-04-18T13:54:30.683Z,5.49
2023-04-18T13:57:37.634Z,7.16
2023-04-18T14:00:44.295Z,7.85
2023-04-18T14:03:50.499Z,6.67
2023-04-18T14:07:00.384Z,5.71
2023-04-18T14:10:09.690Z,7.68
2023-04-18T14:13:16.948Z,7.30
2023-04-18T14:16:26.372Z,6.77
2023-04-18T14:19:33.270Z,5.98
2023-04-18T14:22:41.873Z,5.92
2023-04-18T14:25:49.337Z,7.37
2023-04-18T14:28:55.260Z,8.22
2023-04-18T14:32:08.103Z,8.09
2023-04-18T14:35:23.685Z,7.63
2023-04-18T14:38:33.123Z,7.84
2023-04-18T14:41:39.069Z,8.45
2023-04-18T14:44:46.293Z,8.77
2023-04-18T14:47:52.444Z,7.83
2023-04-18T14:51:06.524Z,8.51
2023-04-18T14:54:15.300Z,7.76
2023-04-18T14:57:22.398Z,7.63
2023-04-18T15:00:28.682Z,7.74
2023-04-18T15:03:41.243Z,7.86
2023-04-18T15:06:47.289Z,8.05
2023-04-18T15:10:01.774Z,7.51
2023-04-18T15:13:08.071Z,6.85
2023-04-18T15:16:15.039Z,6.96
2023-04-18T15:19:21.021Z,6.76
2023-04-18T15:22:28.113Z,6.36
2023-04-18T15:25:36.695Z,6.69
2023-04-18T15:28:43.496Z,7.36
2023-04-18T15:31:49.813Z,8.12
2023-04-18T15:34:56.708Z,7.97
2023-04-18T15:38:02.651Z,8.50
2023-04-18T15:41:15.026Z,7.86
2023-04-18T15:44:21.036Z,7.89
2023-04-18T15:47:28.474Z,7.87
2023-04-18T15:50:34.468Z,8.37
2023-04-18T15:53:41.728Z,8.67
2023-04-18T15:56:50.220Z,8.43
2023-04-18T15:59:57.075Z,8.68
2023-04-18T16:03:03.131Z,9.09
2023-04-18T16:06:10.252Z,9.54
2023-04-18T16:09:16.663Z,9.67
2023-04-18T16:12:26.078Z,9.45
2023-04-18T16:15:35.864Z,8.90
2023-04-18T16:18:43.159Z,9.93
2023-04-18T16:21:49.407Z,10.15
2023-04-18T16:24:56.557Z,10.40
2023-04-18T16:28:05.223Z,9.83
2023-04-18T16:31:12.113Z,9.90
2023-04-18T16:34:18.432Z,10.48
2023-04-18T16:37:25.332Z,10.76
2023-04-18T16:40:32.256Z,10.49
2023-04-18T16:43:44.957Z,10.92
2023-04-18T16:46:52.642Z,10.83
2023-04-18T16:50:00.932Z,10.46
2023-04-18T16:53:27.984Z,11.82
2023-04-18T16:56:35.126Z,12.30
2023-04-18T16:59:46.076Z,11.75
2023-04-18T17:02:56.308Z,12.99
2023-04-18T17:06:02.388Z,13.32
2023-04-18T17:09:09.242Z,14.02
2023-04-18T17:12:15.197Z,14.78
2023-04-18T17:15:25.432Z,14.98
2023-04-18T17:18:31.525Z,14.40
2023-04-18T17:21:39.215Z,13.94
2023-04-18T17:24:45.461Z,13.19
2023-04-18T17:27:52.381Z,13.25
2023-04-18T17:31:05.082Z,13.62
2023-04-18T17:34:11.957Z,13.12
2023-04-18T17:37:17.944Z,13.55
2023-04-18T17:40:25.107Z,13.79
2023-04-18T17:43:31.483Z,14.23
2023-04-18T17:46:48.192Z,14.61
2023-04-18T17:49:55.029Z,14.07
2023-04-18T17:53:01.814Z,14.42
2023-04-18T17:56:15.214Z,13.96
2023-04-18T17:59:22.127Z,13.81
2023-04-18T18:02:31.229Z,13.47
2023-04-18T18:05:38.146Z,13.47
2023-04-18T18:08:46.209Z,13.36
2023-04-18T18:11:55.772Z,13.80
2023-04-18T18:15:04.950Z,13.94
2023-04-18T18:18:15.322Z,14.56
2023-04-18T18:21:21.397Z,14.72
2023-04-18T18:24:28.479Z,15.94
2023-04-18T18:27:34.762Z,15.21
2023-04-18T18:30:41.559Z,16.71
2023-04-18T18:33:50.111Z,16.78
2023-04-18T18:36:59.541Z,17.10
2023-04-18T18:40:08.629Z,16.22
2023-04-18T18:43:16.768Z,14.60
2023-04-18T18:46:22.936Z,14.48
2023-04-18T18:49:32.373Z,14.56
2023-04-18T18:52:40.956Z,14.54
2023-04-18T18:55:55.881Z,14.92
2023-04-18T18:59:05.061Z,14.50
2023-04-18T19:02:11.985Z,14.58
2023-04-18T19:05:21.626Z,14.91
2023-04-18T19:08:28.480Z,15.09
2023-04-18T19:11:35.055Z,16.38
2023-04-18T19:14:56.018Z,16.76
2023-04-18T19:18:02.133Z,16.56
2023-04-18T19:21:13.695Z,16.58
2023-04-18T19:24:20.985Z,18.06
2023-04-18T19:27:27.845Z,18.05
2023-04-18T19:30:33.861Z,15.98
2023-04-18T19:33:41.696Z,15.48
2023-04-18T19:36:50.246Z,16.02
2023-04-18T19:40:02.987Z,16.18
2023-04-18T19:43:09.105Z,17.50
2023-04-18T19:46:16.340Z,18.55
2023-04-18T19:49:22.716Z,20.29
2023-04-18T19:52:35.459Z,21.01
2023-04-18T19:55:44.309Z,20.96
2023-04-18T19:58:51.383Z,21.36
2023-04-18T20:02:00.564Z,20.98
2023-04-18T20:05:23.247Z,21.50
2023-04-18T20:08:31.857Z,23.06
2023-04-18T20:11:38.583Z,23.38
2023-04-18T20:14:45.515Z,23.70
2023-04-18T20:17:54.551Z,23.62
2023-04-18T20:21:00.789Z,23.54
2023-04-18T20:24:12.083Z,24.31
2023-04-18T20:27:20.738Z,26.10
2023-04-18T20:30:27.890Z,26.79
2023-04-18T20:33:36.437Z,27.58
2023-04-18T20:36:44.106Z,29.23
2023-04-18T20:39:53.204Z,33.01
2023-04-18T20:43:10.246Z,33.84
2023-04-18T20:46:29.679Z,33.45
2023-04-18T20:49:43.298Z,31.23
2023-04-18T20:52:49.389Z,56.07
2023-04-18T20:55:58.851Z,40.35
2023-04-18T20:59:04.950Z,30.77
2023-04-18T21:02:12.133Z,30.27
2023-04-18T21:05:18.061Z,30.60
2023-04-18T21:08:24.866Z,31.13
2023-04-18T21:11:33.462Z,31.50
2023-04-18T21:14:40.273Z,31.30
2023-04-18T21:17:46.287Z,32.91
2023-04-18T21:20:53.449Z,33.57
2023-04-18T21:23:59.385Z,54.56
2023-04-18T21:27:13.676Z,45.96
2023-04-18T21:30:19.636Z,35.35
2023-04-18T21:33:26.495Z,38.68
2023-04-18T21:36:34.294Z,39.79
2023-04-18T21:39:46.257Z,42.31
2023-04-18T21:42:54.757Z,66.67
2023-04-18T21:46:01.517Z,66.73
2023-04-18T21:49:16.371Z,42.79
2023-04-18T21:52:23.134Z,44.77
2023-04-18T21:55:29.228Z,46.31
2023-04-18T21:58:38.887Z,48.19
2023-04-18T22:01:49.082Z,49.43
2023-04-18T22:04:56.116Z,50.74
2023-04-18T22:08:03.264Z,51.89
2023-04-18T22:11:11.903Z,48.06
2023-04-18T22:14:23.785Z,46.03
2023-04-18T22:17:31.885Z,47.87
2023-04-18T22:20:39.275Z,51.49
2023-04-18T22:23:46.003Z,50.03
2023-04-18T22:26:52.004Z,49.06
2023-04-18T22:30:04.361Z,48.54
2023-04-18T22:33:10.527Z,49.26
2023-04-18T22:36:27.886Z,48.86
2023-04-18T22:39:34.300Z,44.27
2023-04-18T22:42:41.164Z,42.80
2023-04-18T22:45:49.785Z,43.28
2023-04-18T22:49:02.846Z,44.27
2023-04-18T22:52:12.235Z,43.70
2023-04-18T22:55:24.263Z,76.80
2023-04-18T22:58:31.651Z,64.26
2023-04-18T23:01:41.110Z,49.25
2023-04-18T23:04:47.345Z,48.21
2023-04-18T23:07:54.201Z,45.30
2023-04-18T23:11:00.118Z,44.18
2023-04-18T23:14:29.266Z,46.69
2023-04-18T23:17:37.916Z,48.31
2023-04-18T23:20:44.810Z,48.59
2023-04-18T23:23:50.976Z,47.61
2023-04-18T23:26:58.067Z,47.69
2023-04-18T23:30:04.120Z,48.55
2023-04-18T23:33:13.614Z,49.58
2023-04-18T23:36:24.262Z,49.42
2023-04-18T23:39:33.243Z,48.19
2023-04-18T23:42:44.278Z,47.24
2023-04-18T23:45:51.090Z,45.12
2023-04-18T23:48:59.526Z,44.40
2023-04-18T23:52:07.541Z,44.16
2023-04-18T23:55:13.945Z,44.25
2023-04-18T23:58:20.700Z,44.92
